createdAt,value
2023-03-05T00:01:34.829Z,0.73
2023-03-05T00:04:03.069Z,0.80
2023-03-05T00:06:31.832Z,0.82
2023-03-05T00:08:58.835Z,0.98
2023-03-05T00:11:29.753Z,0.80
2023-03-05T00:13:57.020Z,0.90
2023-03-05T00:16:26.583Z,0.68
2023-03-05T00:18:53.923Z,1.05
2023-03-05T00:21:24.833Z,0.60
2023-03-05T00:23:52.711Z,0.88
2023-03-05T00:26:20.432Z,1.07
2023-03-05T00:28:51.655Z,0.90
2023-03-05T00:31:20.613Z,1.27
2023-03-05T00:33:51.992Z,1.25
2023-03-05T00:36:18.344Z,0.95
2023-03-05T00:38:44.678Z,1.00
2023-03-05T00:41:11.025Z,1.63
2023-03-05T00:43:37.368Z,1.00
2023-03-05T00:46:04.173Z,0.90
2023-03-05T00:48:30.646Z,0.80
2023-03-05T00:50:57.034Z,1.27
2023-03-05T00:53:23.691Z,1.85
2023-03-05T00:55:50.106Z,1.25
2023-03-05T00:58:16.462Z,1.63
2023-03-05T01:00:42.843Z,1.50
2023-03-05T01:03:09.243Z,1.00
2023-03-05T01:05:36.050Z,1.10
2023-03-05T01:08:02.446Z,1.50
2023-03-05T01:10:30.041Z,1.40
2023-03-05T01:12:57.736Z,1.45
2023-03-05T01:15:25.155Z,1.57
2023-03-05T01:17:51.738Z,1.88
2023-03-05T01:20:20.091Z,1.45
2023-03-05T01:22:46.490Z,1.40
2023-03-05T01:25:14.929Z,1.83
2023-03-05T01:27:41.411Z,1.50
2023-03-05T01:30:09.253Z,1.40
2023-03-05T01:32:36.433Z,1.30
2023-03-05T01:35:05.080Z,1.70
2023-03-05T01:37:31.450Z,1.48
2023-03-05T01:39:57.851Z,1.47
2023-03-05T01:42:24.217Z,1.25
2023-03-05T01:45:11.035Z,1.00
2023-03-05T01:47:37.730Z,1.35
2023-03-05T01:50:05.866Z,1.38
2023-03-05T01:52:35.161Z,1.23
2023-03-05T01:55:07.736Z,1.63
2023-03-05T01:57:48.285Z,1.27
2023-03-05T02:00:17.612Z,1.60
2023-03-05T02:02:48.751Z,1.17
2023-03-05T02:05:19.622Z,1.17
2023-03-05T02:07:47.027Z,2.13
2023-03-05T02:10:18.101Z,1.65
2023-03-05T02:12:44.792Z,1.75
2023-03-05T02:15:12.377Z,1.88
2023-03-05T02:17:39.138Z,2.13
2023-03-05T02:20:11.408Z,1.15
2023-03-05T02:22:37.856Z,1.70
2023-03-05T02:25:30.888Z,1.98
2023-03-05T02:28:03.448Z,1.73
2023-03-05T02:30:31.248Z,1.53
2023-03-05T02:32:58.072Z,1.55
2023-03-05T02:35:25.427Z,1.60
2023-03-05T02:37:51.796Z,1.88
2023-03-05T02:40:18.438Z,1.60
2023-03-05T02:42:45.002Z,1.33
2023-03-05T02:45:11.973Z,1.83
2023-03-05T02:47:38.557Z,2.50
2023-03-05T02:50:06.100Z,1.70
2023-03-05T02:52:32.721Z,1.42
2023-03-05T02:54:59.138Z,1.67
2023-03-05T02:57:25.594Z,1.80
2023-03-05T02:59:52.017Z,1.38
2023-03-05T03:02:18.970Z,1.45
2023-03-05T03:04:45.536Z,1.75
2023-03-05T03:07:13.841Z,1.30
2023-03-05T03:09:40.740Z,1.50
2023-03-05T03:12:07.463Z,1.60
2023-03-05T03:14:38.996Z,1.30
2023-03-05T03:17:11.065Z,1.50
2023-03-05T03:19:38.404Z,1.10
2023-03-05T03:22:05.557Z,0.90
2023-03-05T03:24:33.528Z,1.50
2023-03-05T03:26:59.876Z,1.80
2023-03-05T03:29:26.304Z,2.03
2023-03-05T03:31:52.938Z,2.03
2023-03-05T03:34:20.524Z,1.48
2023-03-05T03:36:48.559Z,1.23
2023-03-05T03:39:15.433Z,1.58
2023-03-05T03:41:47.732Z,1.48
2023-03-05T03:44:14.414Z,1.13
2023-03-05T03:46:41.314Z,1.13
2023-03-05T03:49:11.054Z,1.00
2023-03-05T03:51:37.401Z,1.30
2023-03-05T03:54:03.875Z,1.10
2023-03-05T03:56:30.264Z,1.17
2023-03-05T03:58:57.171Z,1.30
2023-03-05T04:01:23.634Z,1.00
2023-03-05T04:03:50.064Z,1.00
2023-03-05T04:06:16.431Z,1.15
2023-03-05T04:08:43.105Z,1.23
2023-03-05T04:11:09.513Z,1.58
2023-03-05T04:13:35.969Z,1.33
2023-03-05T04:16:02.536Z,1.45
2023-03-05T04:18:30.213Z,1.15
2023-03-05T04:20:57.581Z,1.00
2023-03-05T04:23:24.114Z,0.77
2023-03-05T04:25:50.548Z,0.70
2023-03-05T04:28:17.740Z,0.70
2023-03-05T04:30:44.123Z,0.70
2023-03-05T04:33:10.587Z,1.17
2023-03-05T04:35:37.138Z,0.80
2023-03-05T04:38:03.506Z,0.85
2023-03-05T04:40:30.958Z,1.00
2023-03-05T04:42:57.304Z,0.85
2023-03-05T04:45:23.757Z,1.20
2023-03-05T04:47:50.159Z,0.80
2023-03-05T04:50:16.502Z,0.55
2023-03-05T04:52:44.230Z,0.90
2023-03-05T04:55:12.318Z,0.80
2023-03-05T04:57:38.881Z,0.93
2023-03-05T05:00:08.775Z,0.98
2023-03-05T05:02:35.231Z,1.23
2023-03-05T05:05:01.671Z,0.85
2023-03-05T05:07:29.801Z,0.90
2023-03-05T05:09:56.386Z,0.50
2023-03-05T05:12:22.776Z,0.63
2023-03-05T05:14:49.312Z,0.68
2023-03-05T05:17:15.771Z,0.68
2023-03-05T05:19:42.252Z,0.60
2023-03-05T05:22:08.669Z,0.60
2023-03-05T05:24:35.159Z,0.70
2023-03-05T05:27:01.490Z,0.70
2023-03-05T05:29:27.929Z,0.70
2023-03-05T05:31:54.381Z,0.90
2023-03-05T05:34:20.838Z,0.80
2023-03-05T05:36:47.336Z,1.08
2023-03-05T05:39:13.751Z,0.50
2023-03-05T05:41:40.157Z,0.57
2023-03-05T05:44:06.556Z,0.75
2023-03-05T05:46:33.141Z,0.60
2023-03-05T05:48:59.579Z,0.77
2023-03-05T05:51:26.110Z,0.73
2023-03-05T05:53:52.548Z,0.52
2023-03-05T05:56:19.543Z,0.60
2023-03-05T05:58:48.139Z,0.93
2023-03-05T06:01:26.461Z,0.70
2023-03-05T06:03:52.806Z,0.85
2023-03-05T06:06:21.624Z,0.85
2023-03-05T06:08:49.644Z,0.85
2023-03-05T06:11:18.816Z,1.00
2023-03-05T06:13:46.190Z,1.05
2023-03-05T06:16:15.617Z,0.80
2023-03-05T06:18:42.201Z,0.70
2023-03-05T06:21:11.911Z,0.98
2023-03-05T06:23:38.602Z,0.90
2023-03-05T06:26:06.866Z,1.05
2023-03-05T06:28:34.172Z,1.15
2023-03-05T06:31:05.933Z,0.80
2023-03-05T06:33:33.217Z,1.38
2023-03-05T06:36:00.019Z,0.90
2023-03-05T06:38:26.458Z,0.98
2023-03-05T06:40:52.855Z,1.00
2023-03-05T06:43:19.368Z,1.05
2023-03-05T06:45:45.807Z,0.90
2023-03-05T06:48:12.761Z,1.63
2023-03-05T06:50:39.199Z,1.33
2023-03-05T06:53:05.607Z,1.00
2023-03-05T06:55:39.413Z,1.13
2023-03-05T06:58:06.787Z,1.52
2023-03-05T07:00:33.172Z,1.30
2023-03-05T07:02:59.609Z,1.05
2023-03-05T07:05:26.110Z,0.95
2023-03-05T07:07:52.513Z,1.00
2023-03-05T07:10:19.335Z,0.90
2023-03-05T07:12:45.685Z,0.90
2023-03-05T07:15:12.519Z,0.75
2023-03-05T07:17:38.921Z,0.90
2023-03-05T07:20:05.986Z,0.85
2023-03-05T07:22:32.330Z,0.65
2023-03-05T07:24:58.720Z,1.03
2023-03-05T07:27:25.549Z,0.90
2023-03-05T07:29:51.921Z,0.60
2023-03-05T07:32:18.278Z,0.80
2023-03-05T07:34:44.691Z,0.80
2023-03-05T07:37:11.078Z,1.03
2023-03-05T07:39:37.480Z,0.60
2023-03-05T07:42:03.906Z,0.50
2023-03-05T07:44:30.329Z,0.40
2023-03-05T07:46:56.775Z,0.70
2023-03-05T07:49:23.733Z,0.83
2023-03-05T07:51:50.110Z,0.70
2023-03-05T07:54:16.518Z,0.65
2023-03-05T07:56:43.045Z,0.60
2023-03-05T07:59:12.297Z,0.60
2023-03-05T08:01:38.983Z,0.70
2023-03-05T08:04:07.753Z,0.50
2023-03-05T08:06:34.285Z,0.73
2023-03-05T08:09:00.981Z,0.60
2023-03-05T08:11:28.590Z,1.00
2023-03-05T08:13:55.173Z,0.70
2023-03-05T08:16:22.195Z,0.57
2023-03-05T08:18:48.764Z,0.30
2023-03-05T08:21:36.346Z,0.50
2023-03-05T08:24:07.760Z,0.32
2023-03-05T08:26:37.690Z,0.70
2023-03-05T08:29:05.091Z,0.75
2023-03-05T08:31:32.402Z,1.20
2023-03-05T08:34:00.864Z,0.60
2023-03-05T08:36:28.205Z,0.70
2023-03-05T08:38:55.708Z,0.70
2023-03-05T08:41:22.345Z,0.55
2023-03-05T08:43:48.761Z,0.68
2023-03-05T08:46:15.932Z,0.68
2023-03-05T08:48:42.917Z,0.70
2023-03-05T08:51:15.275Z,0.67
2023-03-05T08:53:42.747Z,0.80
2023-03-05T08:56:09.581Z,0.70
2023-03-05T08:58:36.040Z,0.98
2023-03-05T09:01:02.716Z,0.70
2023-03-05T09:03:29.091Z,1.07
2023-03-05T09:05:59.825Z,0.80
2023-03-05T09:08:26.228Z,1.15
2023-03-05T09:10:52.621Z,0.65
2023-03-05T09:13:18.970Z,1.10
2023-03-05T09:15:45.386Z,0.77
2023-03-05T09:18:11.894Z,0.80
2023-03-05T09:20:38.504Z,0.90
2023-03-05T09:23:05.071Z,0.90
2023-03-05T09:25:31.485Z,1.15
2023-03-05T09:27:57.831Z,0.57
2023-03-05T09:30:24.342Z,0.80
2023-03-05T09:32:51.209Z,0.60
2023-03-05T09:35:17.661Z,0.90
2023-03-05T09:37:44.015Z,0.82
2023-03-05T09:40:16.040Z,0.80
2023-03-05T09:43:01.326Z,0.70
2023-03-05T09:45:33.297Z,0.68
2023-03-05T09:48:16.631Z,0.73
2023-03-05T09:50:51.084Z,0.70
2023-03-05T09:53:36.940Z,0.70
2023-03-05T09:56:11.275Z,0.70
2023-03-05T09:58:51.608Z,0.68
2023-03-05T10:01:29.691Z,0.60
2023-03-05T10:04:14.326Z,0.80
2023-03-05T10:07:02.661Z,0.70
2023-03-05T10:09:45.463Z,0.80
2023-03-05T10:12:27.668Z,0.88
2023-03-05T10:14:54.912Z,0.57
2023-03-05T10:17:55.905Z,0.70
2023-03-05T10:20:44.118Z,0.93
2023-03-05T10:23:29.242Z,0.88
2023-03-05T10:26:22.337Z,0.98
2023-03-05T10:29:45.293Z,0.80
2023-03-05T10:32:34.249Z,0.50
2023-03-05T10:35:06.769Z,0.53
2023-03-05T10:38:03.805Z,0.75
2023-03-05T10:40:32.598Z,0.50
2023-03-05T10:43:07.834Z,0.60
2023-03-05T10:45:39.995Z,0.45
2023-03-05T10:48:32.249Z,0.40
2023-03-05T10:51:12.095Z,0.40
2023-03-05T10:53:51.479Z,0.40
2023-03-05T10:56:21.524Z,0.43
2023-03-05T10:58:47.935Z,0.50
2023-03-05T11:01:15.593Z,0.50
2023-03-05T11:03:58.170Z,0.60
2023-03-05T11:06:29.315Z,0.40
2023-03-05T11:08:56.569Z,0.40
2023-03-05T11:11:23.530Z,0.50
2023-03-05T11:13:52.942Z,0.50
2023-03-05T11:16:31.735Z,0.40
2023-03-05T11:19:34.674Z,0.40
2023-03-05T11:22:14.386Z,0.40
2023-03-05T11:24:41.637Z,0.30
2023-03-05T11:27:39.083Z,0.40
2023-03-05T11:30:25.840Z,0.50
2023-03-05T11:33:10.340Z,0.38
2023-03-05T11:35:41.970Z,0.50
2023-03-05T11:38:15.858Z,0.40
2023-03-05T11:40:42.526Z,0.30
2023-03-05T11:43:15.487Z,0.38
2023-03-05T11:45:43.303Z,0.90
2023-03-05T11:48:19.076Z,0.45
2023-03-05T11:50:54.531Z,0.50
2023-03-05T11:53:25.590Z,0.33
2023-03-05T11:55:58.051Z,0.38
2023-03-05T11:58:49.914Z,0.30
2023-03-05T12:01:19.744Z,0.30
2023-03-05T12:03:46.799Z,0.40
2023-03-05T12:06:20.450Z,0.30
2023-03-05T12:08:51.900Z,0.40
2023-03-05T12:11:23.877Z,0.43
2023-03-05T12:14:01.047Z,0.40
2023-03-05T12:16:42.705Z,0.30
2023-03-05T12:19:40.454Z,0.60
2023-03-05T12:22:22.764Z,0.50
2023-03-05T12:24:50.065Z,0.40
2023-03-05T12:27:32.194Z,0.50
2023-03-05T12:30:01.684Z,0.47
2023-03-05T12:32:35.053Z,0.50
2023-03-05T12:35:22.221Z,0.50
2023-03-05T12:37:51.753Z,0.47
2023-03-05T12:40:18.103Z,0.50
2023-03-05T12:43:06.257Z,0.30
2023-03-05T12:45:35.777Z,0.37
2023-03-05T12:48:02.057Z,0.60
2023-03-05T12:50:28.418Z,0.57
2023-03-05T12:53:07.048Z,0.50
2023-03-05T12:55:46.025Z,0.38
2023-03-05T12:58:35.863Z,0.30
2023-03-05T13:01:07.639Z,0.43
2023-03-05T13:03:36.915Z,0.40
2023-03-05T13:06:08.010Z,0.45
2023-03-05T13:08:36.005Z,0.32
2023-03-05T13:11:16.279Z,0.60
2023-03-05T13:13:45.039Z,0.60
2023-03-05T13:16:19.994Z,0.25
2023-03-05T13:18:49.108Z,0.32
2023-03-05T13:21:18.069Z,0.60
2023-03-05T13:23:58.951Z,0.43
2023-03-05T13:26:30.360Z,0.40
2023-03-05T13:29:20.607Z,0.30
2023-03-05T13:31:54.498Z,0.40
2023-03-05T13:34:46.181Z,0.47
2023-03-05T13:37:30.413Z,0.40
2023-03-05T13:40:00.402Z,0.40
2023-03-05T13:42:30.080Z,0.30
2023-03-05T13:45:02.507Z,0.30
2023-03-05T13:47:32.282Z,0.82
2023-03-05T13:50:05.670Z,0.40
2023-03-05T13:52:37.565Z,0.47
2023-03-05T13:55:13.355Z,0.90
2023-03-05T13:57:47.346Z,0.40
2023-03-05T14:00:36.142Z,0.50
2023-03-05T14:03:09.445Z,0.40
2023-03-05T14:05:36.520Z,0.57
2023-03-05T14:08:03.588Z,0.60
2023-03-05T14:10:36.138Z,0.60
2023-03-05T14:13:13.452Z,0.82
2023-03-05T14:15:40.447Z,0.40
2023-03-05T14:18:12.625Z,0.75
2023-03-05T14:21:00.874Z,0.80
2023-03-05T14:23:45.357Z,0.70
2023-03-05T14:26:25.041Z,0.50
2023-03-05T14:29:14.060Z,0.90
2023-03-05T14:32:17.214Z,0.88
2023-03-05T14:34:58.113Z,0.60
2023-03-05T14:37:31.818Z,0.63
2023-03-05T14:40:06.190Z,0.50
2023-03-05T14:42:32.587Z,0.40
2023-03-05T14:45:02.322Z,0.60
2023-03-05T14:47:29.279Z,0.70
2023-03-05T14:49:55.965Z,0.50
2023-03-05T14:52:24.724Z,0.60
2023-03-05T14:54:52.354Z,0.60
2023-03-05T14:57:26.526Z,0.80
2023-03-05T14:59:54.181Z,1.05
2023-03-05T15:02:23.173Z,0.70
2023-03-05T15:04:49.898Z,0.93
2023-03-05T15:07:25.652Z,0.80
2023-03-05T15:09:52.669Z,0.98
2023-03-05T15:12:19.126Z,1.08
2023-03-05T15:14:45.582Z,1.00
2023-03-05T15:17:16.540Z,0.90
2023-03-05T15:19:43.015Z,0.90
2023-03-05T15:22:12.017Z,1.20
2023-03-05T15:24:38.393Z,0.98
2023-03-05T15:27:06.226Z,0.60
2023-03-05T15:29:33.361Z,0.70
2023-03-05T15:32:01.196Z,0.80
2023-03-05T15:34:28.591Z,0.90
2023-03-05T15:36:55.829Z,0.98
2023-03-05T15:39:24.841Z,0.90
2023-03-05T15:41:51.658Z,0.80
2023-03-05T15:44:18.448Z,0.90
2023-03-05T15:46:44.940Z,0.70
2023-03-05T15:49:11.330Z,1.25
2023-03-05T15:51:37.704Z,0.73
2023-03-05T15:54:04.432Z,1.00
2023-03-05T15:56:30.810Z,0.70
2023-03-05T15:58:57.346Z,0.90
2023-03-05T16:01:23.780Z,0.82
2023-03-05T16:03:50.944Z,0.82
2023-03-05T16:06:22.258Z,1.17
2023-03-05T16:08:51.011Z,1.17
2023-03-05T16:11:18.488Z,1.23
2023-03-05T16:13:44.870Z,1.40
2023-03-05T16:16:11.417Z,1.50
2023-03-05T16:18:41.788Z,1.48
2023-03-05T16:21:08.397Z,1.43
2023-03-05T16:23:34.889Z,1.50
2023-03-05T16:26:01.527Z,2.17
2023-03-05T16:28:27.921Z,1.45
2023-03-05T16:30:55.782Z,1.00
2023-03-05T16:33:22.191Z,0.80
2023-03-05T16:35:49.226Z,1.27
2023-03-05T16:38:15.951Z,1.15
2023-03-05T16:41:06.689Z,1.55
2023-03-05T16:43:28.692Z,1.00
2023-03-05T16:45:55.273Z,1.00
2023-03-05T16:48:21.939Z,0.80
2023-03-05T16:50:48.340Z,0.70
2023-03-05T16:53:14.729Z,0.68
2023-03-05T16:55:41.234Z,1.10
2023-03-05T16:58:07.617Z,0.50
2023-03-05T17:00:34.005Z,0.63
2023-03-05T17:03:00.405Z,0.80
2023-03-05T17:05:28.140Z,1.30
2023-03-05T17:07:55.653Z,0.80
2023-03-05T17:10:22.322Z,1.20
2023-03-05T17:12:49.398Z,0.85
2023-03-05T17:15:15.989Z,0.55
2023-03-05T17:17:42.325Z,0.73
2023-03-05T17:20:09.585Z,0.60
2023-03-05T17:22:35.967Z,0.60
2023-03-05T17:25:02.504Z,0.60
2023-03-05T17:27:29.396Z,0.60
2023-03-05T17:29:55.748Z,1.23
2023-03-05T17:32:22.512Z,1.63
2023-03-05T17:34:53.118Z,0.70
2023-03-05T17:37:19.499Z,0.60
2023-03-05T17:39:45.910Z,1.35
2023-03-05T17:42:12.735Z,0.50
2023-03-05T17:44:39.126Z,0.77
2023-03-05T17:47:05.553Z,0.70
2023-03-05T17:49:31.920Z,0.63
2023-03-05T17:51:58.274Z,0.70
2023-03-05T17:54:24.713Z,0.90
2023-03-05T17:56:57.374Z,0.70
2023-03-05T17:59:24.858Z,0.80
2023-03-05T18:01:51.276Z,0.80
2023-03-05T18:04:19.148Z,1.00
2023-03-05T18:06:45.645Z,1.17
2023-03-05T18:09:12.424Z,0.60
2023-03-05T18:11:38.839Z,0.80
2023-03-05T18:14:05.206Z,0.60
2023-03-05T18:16:31.618Z,0.80
2023-03-05T18:18:57.994Z,0.52
2023-03-05T18:21:25.102Z,0.75
2023-03-05T18:23:52.083Z,0.80
2023-03-05T18:26:18.502Z,0.60
2023-03-05T18:28:44.945Z,0.73
2023-03-05T18:31:11.477Z,0.80
2023-03-05T18:33:38.753Z,0.80
2023-03-05T18:36:06.036Z,0.70
2023-03-05T18:38:32.527Z,1.05
2023-03-05T18:41:02.669Z,1.35
2023-03-05T18:43:29.119Z,1.00
2023-03-05T18:45:56.656Z,0.80
2023-03-05T18:48:23.302Z,1.10
2023-03-05T18:50:54.161Z,0.80
2023-03-05T18:53:21.509Z,1.00
2023-03-05T18:55:49.743Z,1.10
2023-03-05T18:58:17.539Z,1.10
2023-03-05T19:00:46.843Z,1.33
2023-03-05T19:03:14.404Z,1.08
2023-03-05T19:05:41.595Z,1.00
2023-03-05T19:08:08.305Z,1.10
2023-03-05T19:10:35.191Z,0.95
2023-03-05T19:13:35.350Z,1.07
2023-03-05T19:16:16.819Z,0.98
2023-03-05T19:19:15.281Z,1.27
2023-03-05T19:21:58.529Z,1.17
2023-03-05T19:24:27.968Z,1.17
2023-03-05T19:26:56.018Z,1.10
2023-03-05T19:29:23.948Z,1.58
2023-03-05T19:31:50.975Z,1.38
2023-03-05T19:34:18.188Z,1.20
2023-03-05T19:36:44.536Z,0.90
2023-03-05T19:39:10.943Z,1.10
2023-03-05T19:41:37.592Z,1.27
2023-03-05T19:44:04.502Z,0.93
2023-03-05T19:46:31.672Z,0.85
2023-03-05T19:48:58.226Z,0.70
2023-03-05T19:51:26.128Z,1.10
2023-03-05T19:53:52.748Z,1.00
2023-03-05T19:56:19.530Z,0.90
2023-03-05T19:58:48.814Z,1.08
2023-03-05T20:01:26.803Z,0.75
2023-03-05T20:03:55.692Z,1.00
2023-03-05T20:06:23.348Z,1.10
2023-03-05T20:08:50.102Z,0.93
2023-03-05T20:11:17.604Z,0.93
2023-03-05T20:13:44.581Z,0.70
2023-03-05T20:16:15.841Z,1.30
2023-03-05T20:18:42.701Z,1.00
2023-03-05T20:21:09.213Z,1.63
2023-03-05T20:23:35.793Z,0.80
2023-03-05T20:26:05.051Z,0.90
2023-03-05T20:28:31.519Z,0.87
2023-03-05T20:30:59.856Z,0.80
2023-03-05T20:33:28.259Z,0.90
2023-03-05T20:35:56.610Z,0.90
2023-03-05T20:38:29.488Z,0.82
2023-03-05T20:40:59.595Z,1.03
2023-03-05T20:43:29.197Z,0.85
2023-03-05T20:45:59.023Z,0.90
2023-03-05T20:48:27.811Z,0.93
2023-03-05T20:50:55.284Z,0.80
2023-03-05T20:53:22.879Z,0.70
2023-03-05T20:55:49.327Z,0.70
2023-03-05T20:58:15.812Z,0.90
2023-03-05T21:00:42.847Z,0.80
2023-03-05T21:03:09.539Z,0.90
2023-03-05T21:05:36.717Z,1.10
2023-03-05T21:08:04.272Z,0.90
2023-03-05T21:10:31.471Z,0.70
2023-03-05T21:13:00.374Z,1.00
2023-03-05T21:15:29.837Z,0.90
2023-03-05T21:17:56.577Z,0.90
2023-03-05T21:20:27.639Z,1.30
2023-03-05T21:22:55.554Z,0.70
2023-03-05T21:25:30.154Z,1.20
2023-03-05T21:27:58.115Z,1.10
2023-03-05T21:30:39.775Z,1.00
2023-03-05T21:33:12.383Z,1.77
2023-03-05T21:35:39.162Z,1.50
2023-03-05T21:38:07.228Z,1.13
2023-03-05T21:40:36.466Z,1.20
2023-03-05T21:43:03.753Z,1.03
2023-03-05T21:45:30.748Z,0.98
2023-03-05T21:47:58.680Z,0.90
2023-03-05T21:50:26.271Z,1.00
2023-03-05T21:52:53.022Z,0.90
2023-03-05T21:55:32.160Z,1.30
2023-03-05T21:58:01.857Z,1.08
2023-03-05T22:00:28.704Z,1.20
2023-03-05T22:02:55.157Z,1.10
2023-03-05T22:05:21.728Z,1.13
2023-03-05T22:07:48.112Z,1.20
2023-03-05T22:10:19.589Z,1.20
2023-03-05T22:13:06.873Z,1.20
2023-03-05T22:15:33.898Z,1.10
2023-03-05T22:18:00.539Z,0.82
2023-03-05T22:20:26.934Z,0.97
2023-03-05T22:22:53.381Z,1.00
2023-03-05T22:25:19.837Z,1.10
2023-03-05T22:27:46.324Z,0.95
2023-03-05T22:30:13.316Z,1.10
2023-03-05T22:32:39.742Z,0.83
2023-03-05T22:35:07.610Z,1.05
2023-03-05T22:37:34.031Z,0.80
2023-03-05T22:40:00.500Z,0.98
2023-03-05T22:42:27.040Z,1.20
2023-03-05T22:44:58.873Z,0.80
2023-03-05T22:47:26.933Z,0.80
2023-03-05T22:49:53.952Z,0.82
2023-03-05T22:52:20.638Z,0.90
2023-03-05T22:54:47.035Z,0.90
2023-03-05T22:57:13.518Z,1.03
2023-03-05T22:59:39.978Z,0.73
2023-03-05T23:02:06.415Z,0.90
2023-03-05T23:04:49.053Z,0.73
2023-03-05T23:07:31.530Z,0.80
2023-03-05T23:10:03.571Z,0.90
2023-03-05T23:12:32.614Z,0.68
2023-03-05T23:15:00.940Z,0.95
2023-03-05T23:17:27.401Z,0.70
2023-03-05T23:19:53.771Z,1.15
2023-03-05T23:22:20.333Z,0.90
2023-03-05T23:24:47.286Z,0.85
2023-03-05T23:27:15.505Z,0.55
2023-03-05T23:30:16.127Z,0.93
2023-03-05T23:32:50.558Z,0.68
2023-03-05T23:35:23.489Z,0.70
2023-03-05T23:37:50.329Z,0.88
2023-03-05T23:40:22.438Z,0.95
2023-03-05T23:42:49.868Z,0.82
2023-03-05T23:45:17.668Z,0.90
2023-03-05T23:47:44.952Z,0.70
2023-03-05T23:50:15.275Z,0.90
2023-03-05T23:52:43.024Z,1.00
2023-03-05T23:55:13.916Z,0.85
2023-03-05T23:57:40.248Z,1.00
